createdAt,value
2018-06-05T00:01:54.418Z,100810.55
2018-06-05T00:04:24.159Z,100807.52
2018-06-05T00:06:52.823Z,100808.02
2018-06-05T00:09:21.613Z,100808.52
2018-06-05T00:11:50.383Z,100808.19
2018-06-05T00:14:19.085Z,100813.61
2018-06-05T00:16:47.849Z,100814.44
2018-06-05T00:19:16.610Z,100820.39
2018-06-05T00:21:45.951Z,100818.67
2018-06-05T00:24:14.674Z,100820.53
2018-06-05T00:26:43.422Z,100827.80
2018-06-05T00:29:12.102Z,100825.09
2018-06-05T00:31:40.850Z,100826.98
2018-06-05T00:34:09.562Z,100828.34
2018-06-05T00:36:38.375Z,100819.00
2018-06-05T00:39:08.333Z,100827.13
2018-06-05T00:41:37.050Z,100830.87
2018-06-05T00:44:05.750Z,100827.63
2018-06-05T00:46:34.460Z,100843.06
2018-06-05T00:49:03.255Z,100832.37
2018-06-05T00:51:43.121Z,100835.94
2018-06-05T00:54:11.808Z,100832.87
2018-06-05T00:56:40.509Z,100841.50
2018-06-05T00:59:09.221Z,100836.61
2018-06-05T01:01:37.902Z,100836.61
2018-06-05T01:04:06.589Z,100834.05
2018-06-05T01:06:35.323Z,100829.13
2018-06-05T01:09:04.270Z,100833.72
2018-06-05T01:11:32.968Z,100840.50
2018-06-05T01:14:01.678Z,100842.85
2018-06-05T01:16:30.342Z,100849.12
2018-06-05T01:18:59.155Z,100847.77
2018-06-05T01:21:27.852Z,100849.80
2018-06-05T01:23:56.588Z,100852.51
2018-06-05T01:26:25.402Z,100853.87
2018-06-05T01:28:54.119Z,100861.14
2018-06-05T01:31:22.871Z,100859.42
2018-06-05T01:33:51.655Z,100855.36
2018-06-05T01:36:20.428Z,100859.61
2018-06-05T01:38:49.107Z,100865.34
2018-06-05T01:41:17.924Z,100865.02
2018-06-05T01:43:46.591Z,100872.30
2018-06-05T01:46:15.292Z,100870.09
2018-06-05T01:48:44.084Z,100861.95
2018-06-05T01:51:12.867Z,100867.05
2018-06-05T01:53:41.744Z,100865.70
2018-06-05T01:56:10.491Z,100875.69
2018-06-05T01:58:39.274Z,100868.05
2018-06-05T02:01:07.954Z,100872.12
2018-06-05T02:03:36.678Z,100870.41
2018-06-05T02:06:05.376Z,100875.50
2018-06-05T02:08:34.057Z,100876.00
2018-06-05T02:11:02.705Z,100871.08
2018-06-05T02:13:31.399Z,100873.78
2018-06-05T02:16:00.093Z,100875.14
2018-06-05T02:18:28.781Z,100876.50
2018-06-05T02:20:57.450Z,100873.43
2018-06-05T02:23:26.365Z,100882.09
2018-06-05T02:25:55.065Z,100868.31
2018-06-05T02:28:23.820Z,100876.81
2018-06-05T02:30:52.496Z,100881.56
2018-06-05T02:33:21.217Z,100890.22
2018-06-05T02:35:49.907Z,100891.05
2018-06-05T02:38:18.594Z,100896.33
2018-06-05T02:40:47.305Z,100898.86
2018-06-05T02:43:16.052Z,100897.50
2018-06-05T02:45:44.758Z,100904.14
2018-06-05T02:48:13.524Z,100899.90
2018-06-05T02:50:42.220Z,100901.94
2018-06-05T02:53:11.058Z,100903.83
2018-06-05T02:55:39.803Z,100909.07
2018-06-05T02:58:08.578Z,100909.07
2018-06-05T03:00:37.278Z,100908.58
2018-06-05T03:03:06.121Z,100917.20
2018-06-05T03:05:34.878Z,100915.53
2018-06-05T03:08:03.626Z,100910.97
2018-06-05T03:10:32.339Z,100918.92
2018-06-05T03:13:01.070Z,100914.36
2018-06-05T03:15:29.801Z,100922.31
2018-06-05T03:17:58.485Z,100922.50
2018-06-05T03:20:27.539Z,100921.15
2018-06-05T03:22:56.198Z,100930.82
2018-06-05T03:25:24.889Z,100932.03
2018-06-05T03:27:53.660Z,100934.92
2018-06-05T03:30:22.384Z,100935.11
2018-06-05T03:32:51.119Z,100935.30
2018-06-05T03:35:19.796Z,100930.55
2018-06-05T03:37:48.517Z,100942.94
2018-06-05T03:40:17.225Z,100944.97
2018-06-05T03:42:46.006Z,100946.19
2018-06-05T03:45:14.770Z,100949.61
2018-06-05T03:47:43.570Z,100947.08
2018-06-05T03:50:12.303Z,100956.76
2018-06-05T03:52:41.021Z,100962.01
2018-06-05T03:55:09.833Z,100971.72
2018-06-05T03:57:38.546Z,100964.77
2018-06-05T04:00:07.286Z,100967.30
2018-06-05T04:02:36.006Z,100971.55
2018-06-05T04:05:04.771Z,100993.96
2018-06-05T04:07:34.089Z,100981.94
2018-06-05T04:10:02.814Z,100980.41
2018-06-05T04:12:31.578Z,100973.45
2018-06-05T04:15:00.262Z,100980.94
2018-06-05T04:17:29.009Z,100983.98
2018-06-05T04:19:58.082Z,100980.95
2018-06-05T04:22:27.125Z,100999.44
2018-06-05T04:24:56.075Z,100995.19
2018-06-05T04:27:24.849Z,100994.55
2018-06-05T04:29:53.886Z,100996.23
2018-06-05T04:32:22.728Z,100998.27
2018-06-05T04:34:51.624Z,100997.27
2018-06-05T04:37:20.473Z,101012.55
2018-06-05T04:39:49.169Z,101007.80
2018-06-05T04:42:17.892Z,101015.44
2018-06-05T04:44:46.849Z,101013.41
2018-06-05T04:47:15.778Z,101013.77
2018-06-05T04:49:44.508Z,101013.77
2018-06-05T04:52:13.298Z,101018.52
2018-06-05T04:54:42.207Z,101019.70
2018-06-05T04:57:11.233Z,101013.77
2018-06-05T04:59:40.336Z,101034.80
2018-06-05T05:02:09.222Z,101030.59
2018-06-05T05:04:38.132Z,101019.73
2018-06-05T05:07:09.696Z,101035.34
2018-06-05T05:09:38.490Z,101027.02
2018-06-05T05:12:07.171Z,101029.09
2018-06-05T05:14:36.011Z,101017.70
2018-06-05T05:17:04.964Z,101015.70
2018-06-05T05:19:33.924Z,101019.13
2018-06-05T05:22:03.027Z,101023.37
2018-06-05T05:24:31.972Z,101024.56
2018-06-05T05:27:00.911Z,101015.73
2018-06-05T05:29:29.770Z,101010.66
2018-06-05T05:31:58.801Z,101017.98
2018-06-05T05:34:27.630Z,101024.59
2018-06-05T05:36:56.426Z,101027.16
2018-06-05T05:39:25.121Z,101024.09
2018-06-05T05:41:54.238Z,101037.34
2018-06-05T05:44:23.004Z,101027.69
2018-06-05T05:46:52.922Z,101036.52
2018-06-05T05:49:21.858Z,101045.84
2018-06-05T05:51:50.703Z,101035.69
2018-06-05T05:54:20.606Z,101041.45
2018-06-05T05:56:49.741Z,101045.38
2018-06-05T05:59:18.498Z,101038.91
2018-06-05T06:01:47.226Z,101038.22
2018-06-05T06:04:15.998Z,101044.37
2018-06-05T06:06:44.824Z,101049.27
2018-06-05T06:09:13.785Z,101042.83
2018-06-05T06:11:42.511Z,101047.08
2018-06-05T06:14:11.528Z,101052.37
2018-06-05T06:16:40.369Z,101061.69
2018-06-05T06:19:09.054Z,101054.41
2018-06-05T06:21:37.808Z,101053.90
2018-06-05T06:24:06.531Z,101057.44
2018-06-05T06:26:35.302Z,101050.14
2018-06-05T06:29:04.184Z,101050.50
2018-06-05T06:31:32.906Z,101038.59
2018-06-05T06:34:01.646Z,101053.89
2018-06-05T06:36:30.435Z,101039.81
2018-06-05T06:38:59.201Z,101046.42
2018-06-05T06:41:28.030Z,101055.43
2018-06-05T06:43:56.715Z,101060.18
2018-06-05T06:46:25.507Z,101056.96
2018-06-05T06:48:54.448Z,101039.66
2018-06-05T06:51:23.150Z,101045.41
2018-06-05T06:53:52.064Z,101046.27
2018-06-05T06:56:20.853Z,101041.91
2018-06-05T06:58:49.901Z,101036.82
2018-06-05T07:01:18.568Z,101039.86
2018-06-05T07:03:47.293Z,101044.80
2018-06-05T07:06:16.061Z,101056.84
2018-06-05T07:08:45.107Z,101047.33
2018-06-05T07:11:14.057Z,101051.41
2018-06-05T07:13:42.809Z,101060.41
2018-06-05T07:16:11.521Z,101052.44
2018-06-05T07:18:40.243Z,101064.31
2018-06-05T07:21:09.213Z,101059.56
2018-06-05T07:23:37.993Z,101051.55
2018-06-05T07:26:06.997Z,101053.73
2018-06-05T07:28:35.853Z,101047.84
2018-06-05T07:31:04.759Z,101044.77
2018-06-05T07:33:33.523Z,101042.05
2018-06-05T07:36:02.249Z,101052.27
2018-06-05T07:38:31.243Z,101050.05
2018-06-05T07:41:00.181Z,101045.47
2018-06-05T07:43:28.894Z,101046.95
2018-06-05T07:45:57.593Z,101039.69
2018-06-05T07:48:26.618Z,101044.91
2018-06-05T07:50:55.468Z,101042.70
2018-06-05T07:53:24.246Z,101054.60
2018-06-05T07:55:52.964Z,101060.36
2018-06-05T07:58:21.702Z,101059.50
2018-06-05T08:00:50.518Z,101058.33
2018-06-05T08:03:19.390Z,101010.87
2018-06-05T08:05:48.133Z,101050.50
2018-06-05T08:08:16.865Z,101065.27
2018-06-05T08:10:45.545Z,101054.23
2018-06-05T08:13:14.347Z,101043.36
2018-06-05T08:15:43.058Z,101061.16
2018-06-05T08:18:11.978Z,101049.80
2018-06-05T08:20:40.658Z,101054.37
2018-06-05T08:23:09.401Z,101059.48
2018-06-05T08:25:38.206Z,101056.77
2018-06-05T08:28:06.946Z,101060.30
2018-06-05T08:30:35.708Z,101067.77
2018-06-05T08:33:04.671Z,101062.34
2018-06-05T08:35:33.655Z,101069.63
2018-06-05T08:38:02.605Z,101070.31
2018-06-05T08:40:31.284Z,101070.49
2018-06-05T08:43:00.034Z,101077.95
2018-06-05T08:45:28.767Z,101081.32
2018-06-05T08:47:57.518Z,101071.49
2018-06-05T08:50:27.045Z,101086.25
2018-06-05T08:52:55.814Z,101073.67
2018-06-05T08:55:24.518Z,101078.75
2018-06-05T08:57:53.303Z,101066.70
2018-06-05T09:00:22.080Z,101074.00
2018-06-05T09:02:50.887Z,101065.52
2018-06-05T09:05:19.743Z,101064.67
2018-06-05T09:07:48.461Z,101068.06
2018-06-05T09:10:17.185Z,101060.42
2018-06-05T09:12:45.918Z,101070.92
2018-06-05T09:15:14.783Z,101077.39
2018-06-05T09:17:43.693Z,101081.10
2018-06-05T09:20:12.435Z,101072.28
2018-06-05T09:22:41.378Z,101075.14
2018-06-05T09:25:10.077Z,101078.89
2018-06-05T09:27:38.762Z,101073.77
2018-06-05T09:30:07.585Z,101072.06
2018-06-05T09:32:36.423Z,101076.81
2018-06-05T09:35:05.209Z,101087.84
2018-06-05T09:37:34.053Z,101078.98
2018-06-05T09:40:02.791Z,101082.70
2018-06-05T09:42:31.530Z,101080.98
2018-06-05T09:45:00.274Z,101089.30
2018-06-05T09:47:29.270Z,101091.66
2018-06-05T09:49:58.183Z,101094.55
2018-06-05T09:52:27.097Z,101098.27
2018-06-05T09:54:55.786Z,101093.83
2018-06-05T09:57:24.678Z,101099.44
2018-06-05T09:59:53.474Z,101089.25
2018-06-05T10:02:22.285Z,101087.04
2018-06-05T10:04:51.063Z,101099.42
2018-06-05T10:07:20.206Z,101105.86
2018-06-05T10:09:48.927Z,101102.45
2018-06-05T10:12:17.695Z,101104.81
2018-06-05T10:14:46.366Z,101094.13
2018-06-05T10:17:15.201Z,101095.13
2018-06-05T10:19:43.903Z,101097.84
2018-06-05T10:22:12.607Z,101086.63
2018-06-05T10:24:41.832Z,101084.45
2018-06-05T10:27:10.534Z,101095.45
2018-06-05T10:29:39.244Z,101105.44
2018-06-05T10:32:08.373Z,101099.33
2018-06-05T10:34:37.142Z,101105.97
2018-06-05T10:37:06.082Z,101095.27
2018-06-05T10:39:34.846Z,101102.22
2018-06-05T10:42:04.763Z,101104.08
2018-06-05T10:44:33.538Z,101099.64
2018-06-05T10:47:02.252Z,101096.11
2018-06-05T10:49:30.983Z,101097.46
2018-06-05T10:52:00.665Z,101103.53
2018-06-05T10:54:29.643Z,101100.31
2018-06-05T10:56:58.323Z,101092.85
2018-06-05T10:59:27.077Z,101094.70
2018-06-05T11:01:55.868Z,101085.38
2018-06-05T11:04:24.615Z,101088.09
2018-06-05T11:06:53.379Z,101101.80
2018-06-05T11:09:22.091Z,101113.16
2018-06-05T11:11:51.646Z,101107.04
2018-06-05T11:14:20.360Z,101102.11
2018-06-05T11:16:49.078Z,101102.29
2018-06-05T11:19:17.766Z,101103.64
2018-06-05T11:21:46.587Z,101105.00
2018-06-05T11:24:15.350Z,101095.67
2018-06-05T11:26:44.047Z,101110.59
2018-06-05T11:29:12.831Z,101109.38
2018-06-05T11:31:41.526Z,101096.31
2018-06-05T11:34:10.229Z,101100.38
2018-06-05T11:36:38.932Z,101099.70
2018-06-05T11:39:08.886Z,101102.91
2018-06-05T11:41:37.746Z,101102.09
2018-06-05T11:44:06.505Z,101101.23
2018-06-05T11:46:35.244Z,101094.95
2018-06-05T11:49:03.967Z,101100.87
2018-06-05T11:51:33.446Z,101091.05
2018-06-05T11:54:02.179Z,101097.97
2018-06-05T11:56:30.930Z,101095.76
2018-06-05T11:58:59.657Z,101092.05
2018-06-05T12:01:28.373Z,101106.28
2018-06-05T12:03:57.087Z,101102.70
2018-06-05T12:06:25.841Z,101095.92
2018-06-05T12:08:54.671Z,101097.42
2018-06-05T12:11:23.998Z,101110.16
2018-06-05T12:13:52.736Z,101115.05
2018-06-05T12:16:22.121Z,101098.45
2018-06-05T12:18:51.135Z,101100.80
2018-06-05T12:21:20.154Z,101097.77
2018-06-05T12:23:48.924Z,101100.48
2018-06-05T12:26:17.792Z,101100.48
2018-06-05T12:28:46.511Z,101096.91
2018-06-05T12:31:15.716Z,101105.15
2018-06-05T12:33:44.542Z,101099.72
2018-06-05T12:36:13.196Z,101104.33
2018-06-05T12:38:42.118Z,101109.39
2018-06-05T12:41:11.160Z,101107.17
2018-06-05T12:43:39.986Z,101110.38
2018-06-05T12:46:09.051Z,101105.48
2018-06-05T12:48:38.003Z,101109.20
2018-06-05T12:51:06.744Z,101105.98
2018-06-05T12:53:35.738Z,101120.91
2018-06-05T12:56:04.468Z,101109.70
2018-06-05T12:58:33.507Z,101110.73
2018-06-05T13:01:02.235Z,101120.71
2018-06-05T13:03:31.042Z,101123.06
2018-06-05T13:05:59.765Z,101121.21
2018-06-05T13:08:28.514Z,101123.92
2018-06-05T13:10:57.283Z,101127.63
2018-06-05T13:13:26.053Z,101122.70
2018-06-05T13:15:54.804Z,101125.59
2018-06-05T13:18:23.494Z,101122.88
2018-06-05T13:20:52.419Z,101125.23
2018-06-05T13:23:21.118Z,101123.87
2018-06-05T13:25:49.821Z,101125.23
2018-06-05T13:28:18.614Z,101123.68
2018-06-05T13:30:47.621Z,101134.39
2018-06-05T13:33:16.570Z,101127.25
2018-06-05T13:35:45.471Z,101129.63
2018-06-05T13:38:14.708Z,101123.35
2018-06-05T13:40:43.528Z,101120.28
2018-06-05T13:43:12.248Z,101129.77
2018-06-05T13:45:40.959Z,101129.94
2018-06-05T13:48:09.782Z,101137.05
2018-06-05T13:50:38.532Z,101137.58
2018-06-05T13:53:07.354Z,101131.79
2018-06-05T13:55:36.080Z,101143.49
2018-06-05T13:58:04.900Z,101136.35
2018-06-05T14:00:33.653Z,101141.45
2018-06-05T14:03:02.504Z,101138.37
2018-06-05T14:05:31.189Z,101143.80
2018-06-05T14:07:59.970Z,101146.15
2018-06-05T14:10:28.705Z,101138.55
2018-06-05T14:12:57.487Z,101138.55
2018-06-05T14:15:26.401Z,101135.97
2018-06-05T14:17:55.279Z,101145.09
2018-06-05T14:20:24.129Z,101142.92
2018-06-05T14:22:52.967Z,101142.92
2018-06-05T14:25:21.766Z,101162.39
2018-06-05T14:27:50.550Z,101155.75
2018-06-05T14:30:19.274Z,101161.17
2018-06-05T14:32:47.956Z,101161.70
2018-06-05T14:35:16.970Z,101164.05
2018-06-05T14:37:45.662Z,101155.06
2018-06-05T14:40:14.393Z,101155.06
2018-06-05T14:42:43.142Z,101162.86
2018-06-05T14:45:11.981Z,101159.30
2018-06-05T14:47:40.871Z,101148.95
2018-06-05T14:50:09.916Z,101160.78
2018-06-05T14:52:38.683Z,101159.95
2018-06-05T14:55:07.417Z,101169.94
2018-06-05T14:57:36.381Z,101172.78
2018-06-05T15:00:05.126Z,101178.73
2018-06-05T15:02:33.871Z,101173.45
2018-06-05T15:05:02.602Z,101184.78
2018-06-05T15:07:31.312Z,101173.09
2018-06-05T15:10:00.085Z,101179.36
2018-06-05T15:12:28.885Z,101186.80
2018-06-05T15:14:57.632Z,101184.95
2018-06-05T15:17:26.345Z,101186.30
2018-06-05T15:19:55.060Z,101184.09
2018-06-05T15:22:23.766Z,101190.02
2018-06-05T15:24:52.651Z,101190.88
2018-06-05T15:27:21.369Z,101185.95
2018-06-05T15:29:50.079Z,101184.59
2018-06-05T15:32:18.750Z,101191.86
2018-06-05T15:34:47.465Z,101195.93
2018-06-05T15:37:16.218Z,101199.99
2018-06-05T15:39:44.989Z,101196.95
2018-06-05T15:42:14.039Z,101196.45
2018-06-05T15:44:42.824Z,101204.23
2018-06-05T15:47:11.591Z,101197.61
2018-06-05T15:49:40.473Z,101196.59
2018-06-05T15:52:09.401Z,101200.66
2018-06-05T15:54:38.377Z,101207.43
2018-06-05T15:57:07.156Z,101204.72
2018-06-05T15:59:36.654Z,101202.50
2018-06-05T16:02:05.472Z,101209.28
2018-06-05T16:04:34.283Z,101217.41
2018-06-05T16:07:03.090Z,101202.18
2018-06-05T16:09:32.093Z,101209.94
2018-06-05T16:12:01.135Z,101207.59
2018-06-05T16:14:32.328Z,101209.08
2018-06-05T16:17:01.433Z,101206.73
2018-06-05T16:19:30.225Z,101200.63
2018-06-05T16:21:59.007Z,101207.53
2018-06-05T16:24:28.066Z,101213.12
2018-06-05T16:26:57.107Z,101220.06
2018-06-05T16:29:26.123Z,101211.70
2018-06-05T16:31:55.205Z,101217.64
2018-06-05T16:34:24.178Z,101223.56
2018-06-05T16:36:53.738Z,101218.64
2018-06-05T16:39:22.734Z,101234.40
2018-06-05T16:41:51.733Z,101236.61
2018-06-05T16:44:20.728Z,101225.91
2018-06-05T16:46:49.536Z,101232.68
2018-06-05T16:49:18.814Z,101230.33
2018-06-05T16:51:47.632Z,101237.60
2018-06-05T16:54:16.437Z,101240.81
2018-06-05T16:56:45.506Z,101232.19
2018-06-05T16:59:14.308Z,101229.11
2018-06-05T17:01:43.057Z,101239.95
2018-06-05T17:04:11.838Z,101245.03
2018-06-05T17:06:40.679Z,101240.97
2018-06-05T17:09:09.474Z,101244.17
2018-06-05T17:11:38.198Z,101250.95
2018-06-05T17:14:06.993Z,101256.86
2018-06-05T17:16:35.712Z,101252.80
2018-06-05T17:19:04.808Z,101261.42
2018-06-05T17:21:33.992Z,101260.93
2018-06-05T17:24:02.732Z,101255.67
2018-06-05T17:26:31.458Z,101261.95
2018-06-05T17:29:00.249Z,101257.03
2018-06-05T17:31:29.039Z,101257.98
2018-06-05T17:33:57.806Z,101254.81
2018-06-05T17:36:26.633Z,101265.66
2018-06-05T17:38:55.420Z,101266.12
2018-06-05T17:41:24.205Z,101262.55
2018-06-05T17:43:53.015Z,101263.41
2018-06-05T17:46:21.840Z,101273.91
2018-06-05T17:48:51.274Z,101272.56
2018-06-05T17:51:20.128Z,101274.90
2018-06-05T17:53:48.897Z,101275.27
2018-06-05T17:56:17.684Z,101281.67
2018-06-05T17:58:46.494Z,101279.83
2018-06-05T18:01:15.247Z,101282.66
2018-06-05T18:03:44.024Z,101284.87
2018-06-05T18:06:12.747Z,101292.52
2018-06-05T18:08:41.504Z,101287.59
2018-06-05T18:11:10.282Z,101299.78
2018-06-05T18:13:39.244Z,101297.07
2018-06-05T18:16:08.017Z,101297.07
2018-06-05T18:18:36.766Z,101301.13
2018-06-05T18:21:05.661Z,101303.35
2018-06-05T18:23:34.462Z,101305.69
2018-06-05T18:26:03.345Z,101301.30
2018-06-05T18:28:32.107Z,101298.09
2018-06-05T18:31:00.855Z,101306.34
2018-06-05T18:33:29.774Z,101312.27
2018-06-05T18:35:58.624Z,101321.75
2018-06-05T18:38:27.498Z,101324.45
2018-06-05T18:40:56.249Z,101324.98
2018-06-05T18:43:25.057Z,101326.34
2018-06-05T18:45:53.889Z,101338.53
2018-06-05T18:48:22.654Z,101340.38
2018-06-05T18:50:51.407Z,101338.53
2018-06-05T18:53:20.154Z,101337.67
2018-06-05T18:55:48.911Z,101334.47
2018-06-05T18:58:17.674Z,101338.00
2018-06-05T19:00:46.467Z,101334.47
2018-06-05T19:03:15.299Z,101329.88
2018-06-05T19:05:44.070Z,101332.74
2018-06-05T19:08:12.909Z,101331.23
2018-06-05T19:10:41.665Z,101333.94
2018-06-05T19:13:10.572Z,101333.11
2018-06-05T19:15:39.444Z,101333.11
2018-06-05T19:18:08.208Z,101328.52
2018-06-05T19:20:37.007Z,101333.94
2018-06-05T19:23:06.000Z,101334.47
2018-06-05T19:25:34.857Z,101338.53
2018-06-05T19:28:03.608Z,101355.61
2018-06-05T19:30:32.668Z,101348.50
2018-06-05T19:33:01.511Z,101352.57
2018-06-05T19:35:30.286Z,101357.12
2018-06-05T19:37:59.067Z,101353.92
2018-06-05T19:40:27.888Z,101360.82
2018-06-05T19:42:57.860Z,101355.56
2018-06-05T19:45:26.707Z,101360.13
2018-06-05T19:47:55.692Z,101369.61
2018-06-05T19:50:24.549Z,101364.34
2018-06-05T19:52:54.532Z,101367.55
2018-06-05T19:55:23.958Z,101366.33
2018-06-05T19:57:52.949Z,101362.79
2018-06-05T20:00:22.142Z,101370.05
2018-06-05T20:02:50.902Z,101370.05
2018-06-05T20:05:19.709Z,101370.70
2018-06-05T20:07:48.509Z,101377.48
2018-06-05T20:10:17.608Z,101371.70
2018-06-05T20:12:46.397Z,101376.25
2018-06-05T20:15:15.153Z,101380.31
2018-06-05T20:17:43.922Z,101380.81
2018-06-05T20:20:13.295Z,101384.05
2018-06-05T20:22:42.120Z,101388.23
2018-06-05T20:25:11.015Z,101385.52
2018-06-05T20:27:39.785Z,101395.00
2018-06-05T20:30:08.626Z,101397.22
2018-06-05T20:32:37.363Z,101402.27
2018-06-05T20:35:06.192Z,101393.31
2018-06-05T20:37:34.950Z,101399.56
2018-06-05T20:40:03.796Z,101404.16
2018-06-05T20:42:32.784Z,101406.98
2018-06-05T20:45:01.779Z,101405.14
2018-06-05T20:47:30.598Z,101408.34
2018-06-05T20:49:59.487Z,101409.70
2018-06-05T20:52:28.458Z,101412.89
2018-06-05T20:54:57.245Z,101411.70
2018-06-05T20:57:26.640Z,101415.77
2018-06-05T20:59:55.427Z,101417.61
2018-06-05T21:02:24.174Z,101426.59
2018-06-05T21:04:52.913Z,101426.23
2018-06-05T21:07:21.801Z,101429.43
2018-06-05T21:09:50.706Z,101428.60
2018-06-05T21:12:19.635Z,101430.94
2018-06-05T21:14:48.580Z,101431.09
2018-06-05T21:17:17.632Z,101436.52
2018-06-05T21:19:46.575Z,101432.95
2018-06-05T21:22:15.452Z,101431.72
2018-06-05T21:24:44.547Z,101427.66
2018-06-05T21:27:13.631Z,101433.59
2018-06-05T21:29:42.685Z,101437.78
2018-06-05T21:32:11.546Z,101441.52
2018-06-05T21:34:40.947Z,101437.94
2018-06-05T21:37:09.699Z,101443.84
2018-06-05T21:39:38.819Z,101438.06
2018-06-05T21:42:07.576Z,101444.00
2018-06-05T21:44:36.514Z,101449.91
2018-06-05T21:47:05.333Z,101449.55
2018-06-05T21:49:34.396Z,101445.97
2018-06-05T21:52:03.237Z,101447.33
2018-06-05T21:54:31.977Z,101450.69
2018-06-05T21:57:04.837Z,101452.41
2018-06-05T21:59:33.656Z,101451.17
2018-06-05T22:02:02.496Z,101456.59
2018-06-05T22:04:31.197Z,101465.73
2018-06-05T22:06:59.923Z,101461.30
2018-06-05T22:09:28.691Z,101411.45
2018-06-05T22:11:57.515Z,101465.86
2018-06-05T22:14:26.235Z,101466.02
2018-06-05T22:16:55.284Z,101470.08
2018-06-05T22:19:23.992Z,101468.35
2018-06-05T22:21:53.063Z,101481.40
2018-06-05T22:24:21.854Z,101485.61
2018-06-05T22:26:50.648Z,101486.59
2018-06-05T22:29:20.199Z,101484.37
2018-06-05T22:31:48.948Z,101491.30
2018-06-05T22:34:17.773Z,101490.81
2018-06-05T22:36:46.486Z,101486.38
2018-06-05T22:39:15.256Z,101486.02
2018-06-05T22:41:44.045Z,101492.78
2018-06-05T22:44:12.811Z,101491.42
2018-06-05T22:46:41.527Z,101486.50
2018-06-05T22:49:10.283Z,101492.44
2018-06-05T22:51:39.018Z,101504.25
2018-06-05T22:54:08.106Z,101497.13
2018-06-05T22:56:36.834Z,101501.18
2018-06-05T22:59:05.790Z,101501.18
2018-06-05T23:01:34.792Z,101504.91
2018-06-05T23:04:03.706Z,101508.59
2018-06-05T23:06:32.705Z,101509.95
2018-06-05T23:09:01.413Z,101505.55
2018-06-05T23:11:30.136Z,101506.53
2018-06-05T23:13:58.948Z,101510.10
2018-06-05T23:16:27.657Z,101512.80
2018-06-05T23:18:56.697Z,101511.08
2018-06-05T23:21:26.091Z,101508.03
2018-06-05T23:23:54.810Z,101516.16
2018-06-05T23:26:24.046Z,101511.23
2018-06-05T23:41:52.949Z,101507.39
2018-06-05T23:44:21.818Z,101510.25
2018-06-05T23:46:50.541Z,101513.17
2018-06-05T23:49:19.578Z,101519.67
2018-06-05T23:51:48.494Z,101522.59
2018-06-05T23:54:17.210Z,101524.52
2018-06-05T23:56:45.902Z,101517.63
2018-06-05T23:59:14.705Z,101522.39
